Time;durP1;ratioP1;P1;durP2;ratioP2;P2;SDS_P1;SDS_P2;PMS_P1;PMS_P2;Temp;Humidity;BMP_temperature;BMP_pressure;BME280_temperature;BME280_humidity;BME280_pressure;Samples;Min_cycle;Max_cycle;Signal;HPM_P1;HPM_P2
2022/03/06 00:00:16;;;;;;;;;12.75;11.75;;;;;;;;5024323;28;51406;-59
2022/03/06 00:03:02;;;;;;;;;10.00;10.00;;;;;;;;5036224;28;51208;-58
2022/03/06 00:05:46;;;;;;;;;12.25;12.25;;;;;;;;5036053;28;51125;-59
2022/03/06 00:08:31;;;;;;;;;12.00;12.00;;;;;;;;5038592;28;51482;-59
2022/03/06 00:11:16;;;;;;;;;14.50;11.75;;;;;;;;5024652;28;51061;-59
2022/03/06 00:14:00;;;;;;;;;17.00;11.25;;;;;;;;5023754;28;51133;-58
2022/03/06 00:16:45;;;;;;;;;12.75;11.00;;;;;;;;5020031;28;51142;-58
2022/03/06 00:19:29;;;;;;;;;15.00;13.75;;;;;;;;5039782;28;51180;-58
2022/03/06 00:22:14;;;;;;;;;13.00;10.50;;;;;;;;5034842;28;51133;-58
2022/03/06 00:24:59;;;;;;;;;16.25;12.75;;;;;;;;5036902;28;51293;-58
2022/03/06 00:27:43;;;;;;;;;16.25;9.00;;;;;;;;5029211;28;51045;-58
2022/03/06 00:30:28;;;;;;;;;17.75;11.75;;;;;;;;5029693;28;51160;-59
2022/03/06 00:33:12;;;;;;;;;12.25;10.00;;;;;;;;5039650;28;51664;-59
2022/03/06 00:35:57;;;;;;;;;14.50;10.25;;;;;;;;5024855;28;51006;-58
2022/03/06 00:38:41;;;;;;;;;15.75;10.75;;;;;;;;5039986;28;51098;-58
2022/03/06 00:41:25;;;;;;;;;11.25;10.00;;;;;;;;5028468;28;51092;-58
2022/03/06 00:44:10;;;;;;;;;10.25;8.00;;;;;;;;5034074;28;51181;-59
2022/03/06 00:46:54;;;;;;;;;13.75;11.00;;;;;;;;5040294;28;51156;-59
2022/03/06 00:49:39;;;;;;;;;13.00;10.00;;;;;;;;5020984;28;51222;-60
2022/03/06 00:52:23;;;;;;;;;14.75;10.75;;;;;;;;5027064;28;51181;-59
2022/03/06 00:55:08;;;;;;;;;12.75;11.25;;;;;;;;5039859;28;51101;-58
2022/03/06 00:57:52;;;;;;;;;13.75;9.75;;;;;;;;5034357;28;51462;-59
2022/03/06 01:00:39;;;;;;;;;11.75;9.75;;;;;;;;5022346;28;51168;-58
2022/03/06 01:03:24;;;;;;;;;14.00;10.75;;;;;;;;5036820;28;51092;-59
2022/03/06 01:06:08;;;;;;;;;14.25;10.00;;;;;;;;5022658;28;51085;-58
2022/03/06 01:08:53;;;;;;;;;12.25;11.50;;;;;;;;5039264;28;51423;-59
2022/03/06 01:11:37;;;;;;;;;10.00;10.00;;;;;;;;5004087;28;51135;-58
2022/03/06 01:14:21;;;;;;;;;12.75;12.75;;;;;;;;5024368;28;51016;-58
2022/03/06 01:17:06;;;;;;;;;9.75;8.25;;;;;;;;5032532;28;52036;-58
2022/03/06 01:19:50;;;;;;;;;13.25;11.00;;;;;;;;5024503;28;51149;-57
2022/03/06 01:22:35;;;;;;;;;12.00;10.50;;;;;;;;5038794;28;51420;-58
2022/03/06 01:25:20;;;;;;;;;13.75;13.00;;;;;;;;5039245;28;51029;-59
2022/03/06 01:28:04;;;;;;;;;12.25;9.25;;;;;;;;5026444;28;51201;-59
2022/03/06 01:30:49;;;;;;;;;14.25;10.50;;;;;;;;5025641;28;51125;-58
2022/03/06 01:33:33;;;;;;;;;17.75;11.00;;;;;;;;5032428;28;51449;-58
2022/03/06 01:36:17;;;;;;;;;13.50;11.00;;;;;;;;5023079;28;51129;-59
2022/03/06 01:39:04;;;;;;;;;16.00;12.00;;;;;;;;5031061;28;51131;-59
2022/03/06 01:41:48;;;;;;;;;12.50;11.00;;;;;;;;5038714;28;51061;-58
2022/03/06 01:44:33;;;;;;;;;12.00;9.50;;;;;;;;5020002;28;51002;-58
2022/03/06 01:47:31;;;;;;;;;14.50;12.00;;;;;;;;5022227;28;51420;-59
2022/03/06 01:50:17;;;;;;;;;12.50;11.25;;;;;;;;5037326;28;51273;-59
2022/03/06 01:53:02;;;;;;;;;13.00;12.00;;;;;;;;5019517;28;50972;-59
2022/03/06 01:55:47;;;;;;;;;13.50;11.75;;;;;;;;5028684;28;51092;-58
2022/03/06 01:58:32;;;;;;;;;18.25;12.75;;;;;;;;5029482;28;51394;-58
2022/03/06 02:01:16;;;;;;;;;14.75;12.00;;;;;;;;5029664;28;51157;-58
2022/03/06 02:04:00;;;;;;;;;16.00;11.00;;;;;;;;5033697;28;51121;-58
2022/03/06 02:06:45;;;;;;;;;14.00;11.75;;;;;;;;5038655;28;51103;-59
2022/03/06 02:09:29;;;;;;;;;14.75;12.75;;;;;;;;5027059;28;51125;-59
2022/03/06 02:12:22;;;;;;;;;15.25;11.50;;;;;;;;5041328;28;51105;-58
2022/03/06 02:15:08;;;;;;;;;14.50;10.75;;;;;;;;5037106;28;51043;-58
2022/03/06 02:17:52;;;;;;;;;16.25;11.00;;;;;;;;5030823;28;51094;-60
2022/03/06 02:20:37;;;;;;;;;12.50;12.50;;;;;;;;5033939;28;51145;-58
2022/03/06 02:23:21;;;;;;;;;15.00;12.75;;;;;;;;5037150;28;51061;-59
2022/03/06 02:26:06;;;;;;;;;13.00;11.00;;;;;;;;5035856;28;51187;-58
2022/03/06 02:28:51;;;;;;;;;11.75;9.50;;;;;;;;5011183;28;51465;-58
2022/03/06 02:31:35;;;;;;;;;14.50;11.50;;;;;;;;5029542;28;51260;-58
2022/03/06 02:34:20;;;;;;;;;17.00;13.00;;;;;;;;5027339;28;51176;-58
2022/03/06 02:37:05;;;;;;;;;13.50;12.00;;;;;;;;5028859;28;51564;-59
2022/03/06 02:39:49;;;;;;;;;14.00;12.00;;;;;;;;5021861;28;51540;-59
2022/03/06 02:42:35;;;;;;;;;15.50;13.00;;;;;;;;5037277;28;51069;-58
2022/03/06 02:45:24;;;;;;;;;12.75;12.00;;;;;;;;5021435;28;51150;-58
2022/03/06 02:48:09;;;;;;;;;15.25;12.25;;;;;;;;5030388;28;51466;-58
2022/03/06 02:51:07;;;;;;;;;13.25;12.25;;;;;;;;4295339;32;51170;-58
2022/03/06 02:53:52;;;;;;;;;14.50;12.50;;;;;;;;5051085;28;51287;-58
2022/03/06 02:56:36;;;;;;;;;10.50;10.25;;;;;;;;5055145;28;51596;-59
2022/03/06 02:59:21;;;;;;;;;14.00;13.75;;;;;;;;5065675;28;51230;-59
2022/03/06 03:02:06;;;;;;;;;12.50;11.00;;;;;;;;5056605;28;51483;-59
2022/03/06 03:04:50;;;;;;;;;12.75;10.00;;;;;;;;5056495;28;51083;-58
2022/03/06 03:07:37;;;;;;;;;16.50;11.25;;;;;;;;5069796;28;51043;-58
2022/03/06 03:10:25;;;;;;;;;16.00;12.00;;;;;;;;5058167;28;51143;-59
2022/03/06 03:13:11;;;;;;;;;17.25;13.00;;;;;;;;5056607;28;51240;-58
2022/03/06 03:15:55;;;;;;;;;13.00;11.75;;;;;;;;5061168;28;51170;-58
2022/03/06 03:18:39;;;;;;;;;14.75;12.50;;;;;;;;5055667;28;51099;-59
2022/03/06 03:21:24;;;;;;;;;16.75;13.50;;;;;;;;5059245;28;51516;-59
2022/03/06 03:24:08;;;;;;;;;20.25;14.00;;;;;;;;5058357;28;51377;-58
2022/03/06 03:26:52;;;;;;;;;15.75;13.00;;;;;;;;5056947;28;51196;-58
2022/03/06 03:29:37;;;;;;;;;18.00;15.50;;;;;;;;5055339;28;51175;-58
2022/03/06 03:32:21;;;;;;;;;16.75;14.00;;;;;;;;5051981;28;51121;-58
2022/03/06 03:35:06;;;;;;;;;17.75;13.75;;;;;;;;5067403;27;51440;-58
2022/03/06 03:37:50;;;;;;;;;17.00;14.25;;;;;;;;5055033;28;51066;-59
2022/03/06 03:40:35;;;;;;;;;18.50;12.75;;;;;;;;5062710;28;51346;-58
2022/03/06 03:43:19;;;;;;;;;16.25;15.00;;;;;;;;5058464;28;51015;-59
2022/03/06 03:46:06;;;;;;;;;14.25;13.75;;;;;;;;5056106;28;51151;-59
2022/03/06 03:48:50;;;;;;;;;15.00;13.75;;;;;;;;5056055;28;51133;-59
2022/03/06 03:51:34;;;;;;;;;19.50;15.25;;;;;;;;5056204;28;51713;-58
2022/03/06 03:54:19;;;;;;;;;19.00;14.25;;;;;;;;5060497;28;51083;-58
2022/03/06 03:57:04;;;;;;;;;15.50;13.75;;;;;;;;5056347;28;51175;-58
2022/03/06 03:59:48;;;;;;;;;16.75;12.75;;;;;;;;5060030;28;51072;-59
2022/03/06 04:02:32;;;;;;;;;20.50;14.50;;;;;;;;5038925;28;51523;-59
2022/03/06 04:05:17;;;;;;;;;24.25;15.25;;;;;;;;5042861;28;51084;-57
2022/03/06 04:08:01;;;;;;;;;16.00;13.00;;;;;;;;5058931;28;51149;-57
2022/03/06 04:10:45;;;;;;;;;22.00;15.50;;;;;;;;5042813;28;51032;-58
2022/03/06 04:13:30;;;;;;;;;19.50;14.50;;;;;;;;5048980;28;50954;-59
2022/03/06 04:16:14;;;;;;;;;14.75;14.00;;;;;;;;5041229;28;51210;-58
2022/03/06 04:18:59;;;;;;;;;12.25;12.00;;;;;;;;5042122;28;51126;-58
2022/03/06 04:21:43;;;;;;;;;14.25;13.25;;;;;;;;5062428;28;51240;-58
2022/03/06 04:24:27;;;;;;;;;19.00;16.00;;;;;;;;5049154;28;51331;-58
2022/03/06 04:27:12;;;;;;;;;16.00;14.25;;;;;;;;5043782;28;51582;-58
2022/03/06 04:29:56;;;;;;;;;14.00;11.75;;;;;;;;5037988;28;51169;-59
2022/03/06 04:32:41;;;;;;;;;20.00;14.00;;;;;;;;5038737;28;51147;-58
2022/03/06 04:35:25;;;;;;;;;17.75;15.25;;;;;;;;5041128;28;51159;-58
2022/03/06 04:38:09;;;;;;;;;16.25;12.00;;;;;;;;5042751;28;51139;-58
2022/03/06 04:40:54;;;;;;;;;18.00;12.50;;;;;;;;5052736;28;52254;-58
2022/03/06 04:43:38;;;;;;;;;16.75;14.25;;;;;;;;5047633;28;51134;-58
2022/03/06 04:46:23;;;;;;;;;18.75;13.75;;;;;;;;5042034;28;51337;-58
2022/03/06 04:49:07;;;;;;;;;20.25;14.50;;;;;;;;5041230;28;51410;-58
2022/03/06 04:51:51;;;;;;;;;20.00;16.50;;;;;;;;5041587;28;51122;-58
2022/03/06 04:54:36;;;;;;;;;16.00;14.50;;;;;;;;5042027;28;51281;-58
2022/03/06 04:57:20;;;;;;;;;19.50;16.00;;;;;;;;5044830;28;51210;-59
2022/03/06 05:00:06;;;;;;;;;19.50;17.75;;;;;;;;5042621;28;51553;-58
2022/03/06 05:02:50;;;;;;;;;19.25;15.50;;;;;;;;5041439;28;51127;-58
2022/03/06 05:05:34;;;;;;;;;18.50;14.75;;;;;;;;5041614;28;51549;-59
2022/03/06 05:08:19;;;;;;;;;20.00;16.25;;;;;;;;5043518;28;51239;-58
2022/03/06 05:11:03;;;;;;;;;17.50;14.00;;;;;;;;5041415;28;51116;-58
2022/03/06 05:13:47;;;;;;;;;15.50;14.00;;;;;;;;5039222;28;51172;-58
2022/03/06 05:16:32;;;;;;;;;17.00;13.75;;;;;;;;5041869;28;51551;-58
2022/03/06 05:19:17;;;;;;;;;19.00;14.00;;;;;;;;5040842;28;51020;-58
2022/03/06 05:22:01;;;;;;;;;18.75;14.50;;;;;;;;5041273;28;51147;-58
2022/03/06 05:24:45;;;;;;;;;20.75;16.00;;;;;;;;5040872;28;51069;-59
2022/03/06 05:27:30;;;;;;;;;16.75;15.00;;;;;;;;5043969;28;51141;-59
2022/03/06 05:30:14;;;;;;;;;21.50;14.25;;;;;;;;5037171;28;52197;-58
2022/03/06 05:32:58;;;;;;;;;19.75;17.00;;;;;;;;5038951;28;51160;-59
2022/03/06 05:35:43;;;;;;;;;18.75;16.00;;;;;;;;5042544;28;51071;-58
2022/03/06 05:38:27;;;;;;;;;21.50;17.50;;;;;;;;5046670;28;51127;-59
2022/03/06 05:41:12;;;;;;;;;18.50;16.75;;;;;;;;5047132;28;51080;-57
2022/03/06 05:43:56;;;;;;;;;19.25;15.00;;;;;;;;5045194;28;51129;-59
2022/03/06 05:46:41;;;;;;;;;15.75;14.00;;;;;;;;5039984;28;51170;-59
2022/03/06 05:49:25;;;;;;;;;18.75;16.00;;;;;;;;5042905;28;51132;-59
2022/03/06 05:52:10;;;;;;;;;18.50;15.50;;;;;;;;5041429;28;51029;-58
2022/03/06 05:54:54;;;;;;;;;22.00;14.50;;;;;;;;5042302;28;51059;-59
2022/03/06 05:57:39;;;;;;;;;21.25;13.50;;;;;;;;5044827;28;51153;-58
2022/03/06 06:00:23;;;;;;;;;17.75;13.50;;;;;;;;5060164;28;51043;-58
2022/03/06 06:03:07;;;;;;;;;25.25;19.00;;;;;;;;5037727;28;51100;-59
2022/03/06 06:05:52;;;;;;;;;18.75;18.50;;;;;;;;5039829;28;51150;-58
2022/03/06 06:08:36;;;;;;;;;17.00;16.00;;;;;;;;5046387;28;51154;-59
2022/03/06 06:11:21;;;;;;;;;24.50;17.75;;;;;;;;5040271;28;51125;-59
2022/03/06 06:14:05;;;;;;;;;18.00;16.25;;;;;;;;5039966;28;51371;-58
2022/03/06 06:16:49;;;;;;;;;20.00;14.00;;;;;;;;5042601;28;51210;-58
2022/03/06 06:19:34;;;;;;;;;17.25;15.25;;;;;;;;5047664;28;51485;-59
2022/03/06 06:22:18;;;;;;;;;20.00;15.75;;;;;;;;5041782;28;51039;-57
2022/03/06 06:25:03;;;;;;;;;22.25;17.75;;;;;;;;5039775;28;51067;-58
2022/03/06 06:27:47;;;;;;;;;16.25;14.00;;;;;;;;5040382;28;51110;-58
2022/03/06 06:30:32;;;;;;;;;17.75;13.50;;;;;;;;5039350;28;51297;-58
2022/03/06 06:33:16;;;;;;;;;16.25;15.00;;;;;;;;5041455;28;51241;-58
2022/03/06 06:36:01;;;;;;;;;11.75;9.25;;;;;;;;5051273;28;51162;-59
2022/03/06 06:38:46;;;;;;;;;17.75;16.75;;;;;;;;5033846;28;51297;-58
2022/03/06 06:41:30;;;;;;;;;21.25;15.50;;;;;;;;5059986;28;51119;-58
2022/03/06 06:44:16;;;;;;;;;15.75;14.75;;;;;;;;5046842;28;51179;-59
2022/03/06 06:47:01;;;;;;;;;16.00;15.00;;;;;;;;5040036;28;51156;-59
2022/03/06 06:49:45;;;;;;;;;17.50;13.75;;;;;;;;5040630;28;51146;-59
2022/03/06 06:52:29;;;;;;;;;16.50;14.75;;;;;;;;5039735;28;51863;-58
2022/03/06 06:55:14;;;;;;;;;16.25;14.50;;;;;;;;5027604;28;51152;-58
2022/03/06 06:58:01;;;;;;;;;15.50;14.00;;;;;;;;5034930;28;51194;-59
2022/03/06 07:00:45;;;;;;;;;17.75;15.75;;;;;;;;5033512;28;51258;-58
2022/03/06 07:03:29;;;;;;;;;18.50;13.75;;;;;;;;5034120;28;51181;-51
2022/03/06 07:06:14;;;;;;;;;17.00;14.75;;;;;;;;5031880;28;51069;-52
2022/03/06 07:08:58;;;;;;;;;20.25;13.00;;;;;;;;5032942;28;51147;-52
2022/03/06 07:11:43;;;;;;;;;23.25;15.25;;;;;;;;5032809;28;51186;-53
2022/03/06 07:14:27;;;;;;;;;16.25;14.00;;;;;;;;5037165;28;51207;-53
2022/03/06 07:17:12;;;;;;;;;18.00;16.25;;;;;;;;5038387;28;51415;-54
2022/03/06 07:19:56;;;;;;;;;17.75;13.75;;;;;;;;5039036;28;51120;-56
2022/03/06 07:22:40;;;;;;;;;16.50;14.25;;;;;;;;5043108;28;51185;-56
2022/03/06 07:25:25;;;;;;;;;15.50;13.50;;;;;;;;5041085;28;51090;-53
2022/03/06 07:28:09;;;;;;;;;17.25;14.25;;;;;;;;5058417;28;51560;-57
2022/03/06 07:30:54;;;;;;;;;19.25;15.75;;;;;;;;5038428;28;51406;-55
2022/03/06 07:33:38;;;;;;;;;23.25;16.75;;;;;;;;5036083;28;51500;-55
2022/03/06 07:36:23;;;;;;;;;15.50;14.00;;;;;;;;5047395;28;51189;-55
2022/03/06 07:39:07;;;;;;;;;19.00;15.25;;;;;;;;5062078;28;51113;-55
2022/03/06 07:41:52;;;;;;;;;14.25;13.00;;;;;;;;5053882;28;51163;-53
2022/03/06 07:44:36;;;;;;;;;17.00;14.50;;;;;;;;5041688;28;51437;-53
2022/03/06 07:47:20;;;;;;;;;19.00;17.75;;;;;;;;5061815;28;51138;-56
2022/03/06 07:50:07;;;;;;;;;23.00;19.25;;;;;;;;5054000;28;50938;-55
2022/03/06 07:52:52;;;;;;;;;22.25;17.00;;;;;;;;5040591;28;51044;-57
2022/03/06 07:55:36;;;;;;;;;16.25;14.75;;;;;;;;5042054;28;51137;-56
2022/03/06 07:58:20;;;;;;;;;15.50;14.25;;;;;;;;5040867;28;51675;-55
2022/03/06 08:01:05;;;;;;;;;15.25;12.50;;;;;;;;5051358;28;51044;-54
2022/03/06 08:03:49;;;;;;;;;13.00;11.00;;;;;;;;5041858;28;51355;-57
2022/03/06 08:06:33;;;;;;;;;18.25;11.50;;;;;;;;5041499;28;51216;-56
2022/03/06 08:09:18;;;;;;;;;21.25;18.25;;;;;;;;5043983;28;51382;-53
2022/03/06 08:12:03;;;;;;;;;12.75;12.75;;;;;;;;5061639;28;50952;-55
2022/03/06 08:14:48;;;;;;;;;15.75;12.75;;;;;;;;5040199;28;51084;-54
2022/03/06 08:17:32;;;;;;;;;17.75;14.75;;;;;;;;5041196;28;51540;-54
2022/03/06 08:20:16;;;;;;;;;14.75;13.25;;;;;;;;5061374;28;51221;-56
2022/03/06 08:23:01;;;;;;;;;13.50;10.50;;;;;;;;5061261;28;51098;-55
2022/03/06 08:25:45;;;;;;;;;13.25;11.25;;;;;;;;5042835;28;51224;-55
2022/03/06 08:28:29;;;;;;;;;16.50;11.75;;;;;;;;5061518;28;51055;-57
2022/03/06 08:31:14;;;;;;;;;12.00;12.00;;;;;;;;5042117;28;51023;-56
2022/03/06 08:33:58;;;;;;;;;15.75;13.00;;;;;;;;5038653;28;52281;-55
2022/03/06 08:36:42;;;;;;;;;15.00;14.00;;;;;;;;5039440;28;51395;-55
2022/03/06 08:39:27;;;;;;;;;16.00;14.25;;;;;;;;5040699;28;51127;-55
2022/03/06 08:42:11;;;;;;;;;17.00;14.00;;;;;;;;5039349;28;51541;-52
2022/03/06 08:44:55;;;;;;;;;15.00;11.50;;;;;;;;5060919;28;51063;-54
2022/03/06 08:47:40;;;;;;;;;15.00;12.00;;;;;;;;5061429;28;51633;-55
2022/03/06 08:50:24;;;;;;;;;17.75;15.75;;;;;;;;5048811;28;52118;-55
2022/03/06 08:53:09;;;;;;;;;10.75;10.00;;;;;;;;5033900;28;51103;-53
2022/03/06 08:55:53;;;;;;;;;16.50;10.75;;;;;;;;5040095;28;51238;-53
2022/03/06 08:58:37;;;;;;;;;14.25;11.25;;;;;;;;5041400;28;51066;-54
2022/03/06 09:01:22;;;;;;;;;21.50;15.50;;;;;;;;5042512;28;51063;-56
2022/03/06 09:04:06;;;;;;;;;21.75;14.50;;;;;;;;5060464;28;51067;-54
2022/03/06 09:06:52;;;;;;;;;13.25;11.50;;;;;;;;5060054;28;51425;-55
2022/03/06 09:09:36;;;;;;;;;51.25;36.50;;;;;;;;5059693;28;51129;-53
2022/03/06 09:12:21;;;;;;;;;13.50;12.00;;;;;;;;5047684;28;51490;-53
2022/03/06 09:15:06;;;;;;;;;15.00;11.50;;;;;;;;5040242;28;51186;-54
2022/03/06 09:17:50;;;;;;;;;18.00;13.50;;;;;;;;5042034;28;51638;-54
2022/03/06 09:20:34;;;;;;;;;14.25;10.75;;;;;;;;5050670;28;51119;-53
2022/03/06 09:23:19;;;;;;;;;11.00;9.00;;;;;;;;5040407;28;51108;-52
2022/03/06 09:26:03;;;;;;;;;19.75;12.50;;;;;;;;5055866;28;51081;-52
2022/03/06 09:28:47;;;;;;;;;17.75;13.75;;;;;;;;5044425;28;51083;-57
2022/03/06 09:31:32;;;;;;;;;19.50;14.50;;;;;;;;5050861;28;51549;-53
2022/03/06 09:34:16;;;;;;;;;20.25;17.75;;;;;;;;5044608;28;51218;-55
2022/03/06 09:37:00;;;;;;;;;14.25;13.00;;;;;;;;5038296;28;51384;-53
2022/03/06 09:39:45;;;;;;;;;19.00;13.25;;;;;;;;5035935;28;51099;-58
2022/03/06 09:42:29;;;;;;;;;21.25;14.00;;;;;;;;5038830;28;51473;-60
2022/03/06 09:45:14;;;;;;;;;19.25;14.75;;;;;;;;5050078;28;51165;-54
2022/03/06 09:47:59;;;;;;;;;15.75;11.00;;;;;;;;5056326;28;51519;-54
2022/03/06 09:50:44;;;;;;;;;15.75;14.00;;;;;;;;5039995;28;51064;-53
2022/03/06 09:53:28;;;;;;;;;12.25;12.25;;;;;;;;5039644;28;51099;-54
2022/03/06 09:56:12;;;;;;;;;19.75;15.00;;;;;;;;5039256;28;51120;-57
2022/03/06 09:58:57;;;;;;;;;13.75;11.25;;;;;;;;5039879;28;51164;-55
2022/03/06 10:01:41;;;;;;;;;17.25;11.75;;;;;;;;5041283;28;51027;-53
2022/03/06 10:04:29;;;;;;;;;15.25;10.50;;;;;;;;5059558;28;51079;-53
2022/03/06 10:07:15;;;;;;;;;13.50;11.75;;;;;;;;5042602;28;51253;-52
2022/03/06 10:10:00;;;;;;;;;14.50;11.50;;;;;;;;5038838;28;51163;-53
2022/03/06 10:12:44;;;;;;;;;14.00;10.75;;;;;;;;5037783;28;51452;-51
2022/03/06 10:15:29;;;;;;;;;12.00;10.75;;;;;;;;5040102;28;51071;-52
2022/03/06 10:18:14;;;;;;;;;14.50;13.25;;;;;;;;5035248;28;51036;-52
2022/03/06 10:21:08;;;;;;;;;13.25;11.00;;;;;;;;5042530;28;51392;-54
2022/03/06 10:23:54;;;;;;;;;14.75;12.50;;;;;;;;5042956;28;51370;-53
2022/03/06 10:26:39;;;;;;;;;15.75;10.00;;;;;;;;5036187;28;51446;-53
2022/03/06 10:29:25;;;;;;;;;13.25;10.00;;;;;;;;5038730;28;51195;-55
2022/03/06 10:32:09;;;;;;;;;15.75;12.25;;;;;;;;5030843;28;51640;-55
2022/03/06 10:35:04;;;;;;;;;12.25;12.25;;;;;;;;5035967;28;51134;-55
2022/03/06 10:37:48;;;;;;;;;18.50;11.50;;;;;;;;5053535;28;51400;-55
2022/03/06 10:40:37;;;;;;;;;18.00;13.50;;;;;;;;5042561;28;51146;-56
2022/03/06 10:43:26;;;;;;;;;16.75;14.00;;;;;;;;5038725;28;50866;-53
2022/03/06 10:46:11;;;;;;;;;15.50;11.75;;;;;;;;5044956;28;51433;-55
2022/03/06 10:48:57;;;;;;;;;11.75;10.50;;;;;;;;5039018;28;51279;-55
2022/03/06 10:51:48;;;;;;;;;17.50;12.50;;;;;;;;5038500;28;51484;-55
2022/03/06 10:54:47;;;;;;;;;17.00;14.50;;;;;;;;5038241;28;51223;-55
2022/03/06 10:57:31;;;;;;;;;18.00;14.00;;;;;;;;5038762;28;51534;-54
2022/03/06 11:00:16;;;;;;;;;18.75;15.50;;;;;;;;5039733;28;51202;-54
2022/03/06 11:03:04;;;;;;;;;14.50;14.25;;;;;;;;5039486;28;51159;-55
2022/03/06 11:05:49;;;;;;;;;16.00;7.75;;;;;;;;5040890;28;51166;-52
2022/03/06 11:08:34;;;;;;;;;51.25;4.00;;;;;;;;5038425;28;51170;-52
2022/03/06 11:11:19;;;;;;;;;62.00;29.00;;;;;;;;5039557;28;51633;-53
2022/03/06 11:14:04;;;;;;;;;35.75;15.50;;;;;;;;5043892;28;51154;-53
2022/03/06 11:16:49;;;;;;;;;7.50;5.00;;;;;;;;5051043;28;51342;-53
2022/03/06 11:19:34;;;;;;;;;14.50;7.75;;;;;;;;5042215;28;51024;-52
2022/03/06 11:22:36;;;;;;;;;15.50;8.75;;;;;;;;5040214;28;51025;-50
2022/03/06 11:25:23;;;;;;;;;7.50;2.00;;;;;;;;5041174;28;51219;-52
2022/03/06 11:28:26;;;;;;;;;10.75;7.25;;;;;;;;5042229;28;51400;-52
2022/03/06 11:31:11;;;;;;;;;8.75;6.50;;;;;;;;5044520;28;51159;-51
2022/03/06 11:33:56;;;;;;;;;9.50;6.50;;;;;;;;5048515;28;51266;-51
2022/03/06 11:36:47;;;;;;;;;16.25;9.00;;;;;;;;5043507;28;51575;-52
2022/03/06 11:39:31;;;;;;;;;13.50;10.00;;;;;;;;5044783;28;51139;-53
2022/03/06 11:42:34;;;;;;;;;16.25;10.00;;;;;;;;5051361;28;51143;-49
2022/03/06 11:45:37;;;;;;;;;11.25;4.75;;;;;;;;5050882;28;51049;-50
2022/03/06 11:48:33;;;;;;;;;10.50;9.00;;;;;;;;5044583;28;51077;-50
2022/03/06 11:51:24;;;;;;;;;10.00;8.25;;;;;;;;5042466;28;51169;-52
2022/03/06 11:54:14;;;;;;;;;8.25;5.25;;;;;;;;5042062;28;51044;-50
2022/03/06 11:56:59;;;;;;;;;8.50;5.75;;;;;;;;5042608;28;51157;-52
2022/03/06 11:59:46;;;;;;;;;4.25;4.00;;;;;;;;5042599;28;51183;-47
2022/03/06 12:02:30;;;;;;;;;8.75;5.00;;;;;;;;5042540;28;51139;-51
2022/03/06 12:05:16;;;;;;;;;2.75;2.00;;;;;;;;5061745;28;51186;-51
2022/03/06 12:08:00;;;;;;;;;4.00;3.75;;;;;;;;5040236;28;51433;-51
2022/03/06 12:10:45;;;;;;;;;3.50;2.00;;;;;;;;5040846;28;51103;-50
2022/03/06 12:13:29;;;;;;;;;6.75;1.50;;;;;;;;5038577;28;51204;-53
2022/03/06 12:16:15;;;;;;;;;7.00;4.00;;;;;;;;5061139;28;51083;-52
2022/03/06 12:19:06;;;;;;;;;4.50;4.00;;;;;;;;5051616;28;51122;-49
2022/03/06 12:21:51;;;;;;;;;8.00;5.00;;;;;;;;5041341;28;51229;-48
2022/03/06 12:24:35;;;;;;;;;3.50;3.00;;;;;;;;5037446;28;51258;-51
2022/03/06 12:27:23;;;;;;;;;4.50;3.75;;;;;;;;5052594;28;51104;-49
2022/03/06 12:30:07;;;;;;;;;4.50;4.00;;;;;;;;5041728;28;51169;-51
2022/03/06 12:32:51;;;;;;;;;7.50;3.00;;;;;;;;5040993;28;51083;-49
2022/03/06 12:35:36;;;;;;;;;5.00;3.50;;;;;;;;5047291;28;51070;-48
2022/03/06 12:38:22;;;;;;;;;7.50;4.00;;;;;;;;5040235;28;51078;-50
2022/03/06 12:41:06;;;;;;;;;7.25;3.75;;;;;;;;5040688;28;51156;-52
2022/03/06 12:43:57;;;;;;;;;7.25;3.00;;;;;;;;5040782;28;51377;-47
2022/03/06 12:46:40;;;;;;;;;6.75;5.50;;;;;;;;5050709;28;51016;-53
2022/03/06 12:49:25;;;;;;;;;8.25;5.00;;;;;;;;5060614;28;51336;-53
2022/03/06 12:52:09;;;;;;;;;10.75;8.25;;;;;;;;5060792;28;52022;-49
2022/03/06 12:55:00;;;;;;;;;6.50;4.25;;;;;;;;5059953;28;51204;-50
2022/03/06 12:57:46;;;;;;;;;8.50;6.00;;;;;;;;5032299;28;51096;-54
2022/03/06 13:00:31;;;;;;;;;8.00;7.00;;;;;;;;5042174;28;51160;-51
2022/03/06 13:03:16;;;;;;;;;12.25;9.75;;;;;;;;5050082;28;51343;-50
2022/03/06 13:06:16;;;;;;;;;8.75;7.50;;;;;;;;5040496;28;51209;-51
2022/03/06 13:09:02;;;;;;;;;12.25;8.25;;;;;;;;5039661;28;51482;-53
2022/03/06 13:11:47;;;;;;;;;12.00;8.50;;;;;;;;5040370;28;51091;-53
2022/03/06 13:14:36;;;;;;;;;8.25;5.50;;;;;;;;5049028;28;50993;-52
2022/03/06 13:17:20;;;;;;;;;7.50;7.00;;;;;;;;5040249;28;51534;-52
2022/03/06 13:20:05;;;;;;;;;9.50;5.25;;;;;;;;5043148;28;51119;-50
2022/03/06 13:22:50;;;;;;;;;6.00;3.50;;;;;;;;5039689;28;51135;-53
2022/03/06 13:25:37;;;;;;;;;12.50;6.00;;;;;;;;5039979;28;51204;-53
2022/03/06 13:28:21;;;;;;;;;7.25;6.25;;;;;;;;5038409;28;51203;-52
2022/03/06 13:31:05;;;;;;;;;9.25;4.75;;;;;;;;5038979;28;51127;-52
2022/03/06 13:34:06;;;;;;;;;3.00;1.25;;;;;;;;5032954;28;51158;-51
2022/03/06 13:36:51;;;;;;;;;7.50;4.50;;;;;;;;5027121;28;51143;-52
2022/03/06 13:39:36;;;;;;;;;6.00;4.50;;;;;;;;5034382;28;51107;-52
2022/03/06 13:42:34;;;;;;;;;7.25;5.00;;;;;;;;5029169;28;52358;-51
2022/03/06 13:45:18;;;;;;;;;14.25;8.25;;;;;;;;5030856;28;51186;-49
2022/03/06 13:48:04;;;;;;;;;12.75;10.75;;;;;;;;5025256;28;51218;-51
2022/03/06 13:50:50;;;;;;;;;15.50;14.00;;;;;;;;5028086;28;51033;-51
2022/03/06 13:53:34;;;;;;;;;18.75;14.50;;;;;;;;5033785;28;51404;-51
2022/03/06 13:56:26;;;;;;;;;24.25;15.50;;;;;;;;5025863;28;51076;-53
2022/03/06 13:59:12;;;;;;;;;18.00;15.00;;;;;;;;5029055;28;51456;-51
2022/03/06 14:02:06;;;;;;;;;15.00;11.75;;;;;;;;5027864;28;51077;-53
2022/03/06 14:04:51;;;;;;;;;20.75;13.25;;;;;;;;5024675;28;51149;-51
2022/03/06 14:07:35;;;;;;;;;16.25;12.25;;;;;;;;5027549;28;51452;-52
2022/03/06 14:10:37;;;;;;;;;10.00;10.00;;;;;;;;5027338;28;51254;-52
2022/03/06 14:13:23;;;;;;;;;11.00;9.25;;;;;;;;5024040;28;51118;-50
2022/03/06 14:16:08;;;;;;;;;11.75;9.25;;;;;;;;5028433;28;51260;-52
2022/03/06 14:18:58;;;;;;;;;16.75;11.25;;;;;;;;5026062;28;51352;-53
2022/03/06 14:21:43;;;;;;;;;13.50;11.50;;;;;;;;5023684;28;51466;-51
2022/03/06 14:24:28;;;;;;;;;12.00;9.00;;;;;;;;5035493;28;51554;-52
2022/03/06 14:27:12;;;;;;;;;15.50;12.75;;;;;;;;5024690;28;51152;-51
2022/03/06 14:29:57;;;;;;;;;16.25;14.50;;;;;;;;5022806;28;51100;-53
2022/03/06 14:32:41;;;;;;;;;17.00;15.25;;;;;;;;5027608;28;51019;-53
2022/03/06 14:35:25;;;;;;;;;16.50;13.75;;;;;;;;5027967;28;51198;-52
2022/03/06 14:38:10;;;;;;;;;23.50;17.75;;;;;;;;5023522;28;51156;-52
2022/03/06 14:40:54;;;;;;;;;23.50;20.25;;;;;;;;5027217;28;51144;-52
2022/03/06 14:43:39;;;;;;;;;22.50;17.00;;;;;;;;5032343;28;51149;-52
2022/03/06 14:46:23;;;;;;;;;19.25;18.75;;;;;;;;5024800;28;51129;-52
2022/03/06 14:49:10;;;;;;;;;20.00;16.75;;;;;;;;5028933;28;51071;-52
2022/03/06 14:51:55;;;;;;;;;18.25;16.25;;;;;;;;5027587;28;51124;-52
2022/03/06 14:54:39;;;;;;;;;20.00;16.50;;;;;;;;5032436;28;51238;-52
2022/03/06 14:57:24;;;;;;;;;16.50;12.75;;;;;;;;5020907;28;51424;-50
2022/03/06 15:00:09;;;;;;;;;20.00;14.50;;;;;;;;5020022;28;51628;-52
2022/03/06 15:02:53;;;;;;;;;20.25;14.00;;;;;;;;5033384;28;51197;-53
2022/03/06 15:05:38;;;;;;;;;15.50;14.75;;;;;;;;5029251;28;51104;-52
2022/03/06 15:08:22;;;;;;;;;21.00;16.00;;;;;;;;5027774;28;51160;-52
2022/03/06 15:11:06;;;;;;;;;16.25;13.50;;;;;;;;5033910;28;51158;-52
2022/03/06 15:13:51;;;;;;;;;20.25;14.25;;;;;;;;5026262;28;51204;-52
2022/03/06 15:16:35;;;;;;;;;17.50;14.75;;;;;;;;5025308;28;51114;-51
2022/03/06 15:19:19;;;;;;;;;14.25;11.50;;;;;;;;5033675;28;52239;-52
2022/03/06 15:22:07;;;;;;;;;16.75;13.25;;;;;;;;5047794;28;51416;-52
2022/03/06 15:24:51;;;;;;;;;14.50;9.75;;;;;;;;5058391;28;51452;-50
2022/03/06 15:27:36;;;;;;;;;14.75;11.00;;;;;;;;5056159;28;51190;-51
2022/03/06 15:30:20;;;;;;;;;17.25;10.75;;;;;;;;5037632;28;51164;-52
2022/03/06 15:33:05;;;;;;;;;10.75;8.25;;;;;;;;5037343;28;51165;-52
2022/03/06 15:35:49;;;;;;;;;8.00;4.50;;;;;;;;5027608;28;51234;-53
2022/03/06 15:38:34;;;;;;;;;5.00;5.00;;;;;;;;5020471;28;51410;-50
2022/03/06 15:41:18;;;;;;;;;8.75;7.00;;;;;;;;5038551;28;51149;-50
2022/03/06 15:44:03;;;;;;;;;4.25;3.50;;;;;;;;5059084;28;50996;-51
2022/03/06 15:46:47;;;;;;;;;3.00;2.75;;;;;;;;5049334;28;51513;-52
2022/03/06 15:49:32;;;;;;;;;5.75;2.25;;;;;;;;5039428;28;51363;-52
2022/03/06 15:52:17;;;;;;;;;2.00;2.00;;;;;;;;5037035;28;51005;-53
2022/03/06 15:55:01;;;;;;;;;3.75;1.75;;;;;;;;5038487;28;51167;-51
2022/03/06 15:57:49;;;;;;;;;5.50;3.25;;;;;;;;5039471;28;51418;-52
2022/03/06 16:00:33;;;;;;;;;2.75;2.75;;;;;;;;5041964;28;51201;-52
2022/03/06 16:03:18;;;;;;;;;5.75;3.50;;;;;;;;5039191;28;51017;-53
2022/03/06 16:06:02;;;;;;;;;3.25;3.00;;;;;;;;5033480;28;51212;-50